createdAt,value
2023-03-15T00:01:18.767Z,3.79
2023-03-15T00:03:47.927Z,3.79
2023-03-15T00:06:17.617Z,3.76
2023-03-15T00:08:47.944Z,3.75
2023-03-15T00:11:18.138Z,3.75
2023-03-15T00:13:47.775Z,3.73
2023-03-15T00:16:20.656Z,3.74
2023-03-15T00:18:48.682Z,3.73
2023-03-15T00:21:16.774Z,3.74
2023-03-15T00:23:45.136Z,3.77
2023-03-15T00:26:14.009Z,3.78
2023-03-15T00:28:42.454Z,3.77
2023-03-15T00:31:16.842Z,3.78
2023-03-15T00:33:48.141Z,3.76
2023-03-15T00:36:16.632Z,3.76
2023-03-15T00:38:44.869Z,3.75
2023-03-15T00:41:15.990Z,3.76
2023-03-15T00:43:45.083Z,3.78
2023-03-15T00:46:14.136Z,3.81
2023-03-15T00:48:43.644Z,3.83
2023-03-15T00:51:14.051Z,3.85
2023-03-15T00:53:45.728Z,3.84
2023-03-15T00:56:17.490Z,3.83
2023-03-15T00:58:45.769Z,3.85
2023-03-15T01:01:23.760Z,3.87
2023-03-15T01:03:53.779Z,3.87
2023-03-15T01:06:28.316Z,3.84
2023-03-15T01:08:57.472Z,3.82
2023-03-15T01:11:28.039Z,3.79
2023-03-15T01:13:59.149Z,3.77
2023-03-15T01:16:28.520Z,3.76
2023-03-15T01:18:58.203Z,3.75
2023-03-15T01:21:29.813Z,3.73
2023-03-15T01:23:58.361Z,3.72
2023-03-15T01:26:26.520Z,3.72
2023-03-15T01:28:55.447Z,3.72
2023-03-15T01:31:26.592Z,3.72
2023-03-15T01:33:55.597Z,3.71
2023-03-15T01:36:25.015Z,3.70
2023-03-15T01:38:55.064Z,3.68
2023-03-15T01:41:30.883Z,3.68
2023-03-15T01:43:59.032Z,3.68
2023-03-15T01:46:29.580Z,3.67
2023-03-15T01:49:02.736Z,3.67
2023-03-15T01:51:41.853Z,3.68
2023-03-15T01:54:25.199Z,3.67
2023-03-15T01:57:00.345Z,3.68
2023-03-15T01:59:35.623Z,3.67
2023-03-15T02:02:05.334Z,3.66
2023-03-15T02:04:48.511Z,3.66
2023-03-15T02:07:21.136Z,3.66
2023-03-15T02:10:01.965Z,3.68
2023-03-15T02:12:35.394Z,3.67
2023-03-15T02:15:07.799Z,3.67
2023-03-15T02:17:42.099Z,3.63
2023-03-15T02:20:18.917Z,3.62
2023-03-15T02:23:06.813Z,3.60
2023-03-15T02:26:20.986Z,3.58
2023-03-15T02:28:50.754Z,3.53
2023-03-15T02:31:22.072Z,3.51
2023-03-15T02:33:55.612Z,3.51
2023-03-15T02:36:32.110Z,3.52
2023-03-15T02:39:00.650Z,3.52
2023-03-15T02:41:32.579Z,3.50
2023-03-15T02:44:06.908Z,3.50
2023-03-15T02:46:36.870Z,3.49
2023-03-15T02:49:08.119Z,3.49
2023-03-15T02:51:36.371Z,3.47
2023-03-15T02:54:04.646Z,3.47
2023-03-15T02:56:33.691Z,3.48
2023-03-15T02:59:02.190Z,3.48
2023-03-15T03:01:31.826Z,3.50
2023-03-15T03:04:00.795Z,3.51
2023-03-15T03:06:32.616Z,3.52
2023-03-15T03:09:04.576Z,3.54
2023-03-15T03:11:33.060Z,3.55
2023-03-15T03:14:01.284Z,3.57
2023-03-15T03:16:29.361Z,3.58
2023-03-15T03:18:57.877Z,3.59
2023-03-15T03:21:26.426Z,3.60
2023-03-15T03:23:54.873Z,3.59
2023-03-15T03:26:27.938Z,3.59
2023-03-15T03:28:56.499Z,3.58
2023-03-15T03:31:27.889Z,3.58
2023-03-15T03:33:57.148Z,3.56
2023-03-15T03:36:26.855Z,3.56
2023-03-15T03:38:54.957Z,3.57
2023-03-15T03:41:23.226Z,3.56
2023-03-15T03:43:51.510Z,3.56
2023-03-15T03:46:20.151Z,3.56
2023-03-15T03:48:52.212Z,3.57
2023-03-15T03:51:21.116Z,3.59
2023-03-15T03:53:49.621Z,3.62
2023-03-15T03:56:17.969Z,3.63
2023-03-15T03:58:46.060Z,3.63
2023-03-15T04:01:22.610Z,3.62
2023-03-15T04:03:54.403Z,3.62
2023-03-15T04:06:26.066Z,3.63
2023-03-15T04:08:54.527Z,3.63
2023-03-15T04:11:29.629Z,3.63
2023-03-15T04:14:01.367Z,3.65
2023-03-15T04:16:29.693Z,3.65
2023-03-15T04:19:09.465Z,3.62
2023-03-15T04:21:38.411Z,3.61
2023-03-15T04:24:20.361Z,3.60
2023-03-15T04:27:14.920Z,3.59
2023-03-15T04:30:28.312Z,3.52
2023-03-15T04:33:12.751Z,3.45
2023-03-15T04:36:02.909Z,3.44
2023-03-15T04:39:07.531Z,3.43
2023-03-15T04:42:15.558Z,3.38
2023-03-15T04:45:36.065Z,3.34
2023-03-15T04:48:22.694Z,3.33
2023-03-15T04:51:28.764Z,3.36
2023-03-15T04:54:25.505Z,3.36
2023-03-15T04:57:13.624Z,3.36
2023-03-15T05:00:12.305Z,3.40
2023-03-15T05:03:00.702Z,3.42
2023-03-15T05:05:48.331Z,3.44
2023-03-15T05:08:42.990Z,3.44
2023-03-15T05:11:47.092Z,3.40
2023-03-15T05:14:37.494Z,3.40
2023-03-15T05:17:15.586Z,3.34
2023-03-15T05:19:50.180Z,3.34
2023-03-15T05:22:38.285Z,3.39
2023-03-15T05:25:30.265Z,3.42
2023-03-15T05:28:19.191Z,3.43
2023-03-15T05:31:11.094Z,3.44
2023-03-15T05:34:04.584Z,3.46
2023-03-15T05:37:03.324Z,3.50
2023-03-15T05:39:47.460Z,3.53
2023-03-15T05:42:26.388Z,3.59
2023-03-15T05:45:21.305Z,3.62
2023-03-15T05:47:52.196Z,3.69
2023-03-15T05:50:44.660Z,3.74
2023-03-15T05:53:13.437Z,3.84
2023-03-15T05:56:08.633Z,3.96
2023-03-15T05:58:55.518Z,4.06
2023-03-15T06:01:51.151Z,4.18
2023-03-15T06:04:27.224Z,4.32
2023-03-15T06:06:56.140Z,4.45
2023-03-15T06:09:24.628Z,4.59
2023-03-15T06:11:53.821Z,4.73
2023-03-15T06:14:23.036Z,4.88
2023-03-15T06:16:57.222Z,5.03
2023-03-15T06:19:47.733Z,5.21
2023-03-15T06:22:24.662Z,5.45
2023-03-15T06:25:12.445Z,5.67
2023-03-15T06:27:42.126Z,5.87
2023-03-15T06:30:15.903Z,5.97
2023-03-15T06:32:45.358Z,6.10
2023-03-15T06:35:14.599Z,6.15
2023-03-15T06:37:46.258Z,6.24
2023-03-15T06:40:15.057Z,6.36
2023-03-15T06:42:44.108Z,6.47
2023-03-15T06:45:13.798Z,6.53
2023-03-15T06:47:42.374Z,6.53
2023-03-15T06:50:12.042Z,6.59
2023-03-15T06:52:41.960Z,6.69
2023-03-15T06:55:17.211Z,6.72
2023-03-15T06:57:45.774Z,6.72
2023-03-15T07:00:17.875Z,6.77
2023-03-15T07:02:46.159Z,6.76
2023-03-15T07:05:14.924Z,6.74
2023-03-15T07:07:43.037Z,6.82
2023-03-15T07:10:11.555Z,6.94
2023-03-15T07:12:39.655Z,7.01
2023-03-15T07:15:08.892Z,7.09
2023-03-15T07:17:37.207Z,7.18
2023-03-15T07:20:06.307Z,7.30
2023-03-15T07:22:36.860Z,7.44
2023-03-15T07:25:07.560Z,7.64
2023-03-15T07:27:36.859Z,7.83
2023-03-15T07:30:08.875Z,8.10
2023-03-15T07:32:39.229Z,8.57
2023-03-15T07:35:08.205Z,9.09
2023-03-15T07:37:36.372Z,9.48
2023-03-15T07:40:09.766Z,9.80
2023-03-15T07:42:40.791Z,10.26
2023-03-15T07:45:10.269Z,10.51
2023-03-15T07:47:38.418Z,10.75
2023-03-15T07:50:07.167Z,11.09
2023-03-15T07:52:35.335Z,11.37
2023-03-15T07:55:05.089Z,11.70
2023-03-15T07:57:33.391Z,12.04
2023-03-15T08:00:04.686Z,12.29
2023-03-15T08:02:45.470Z,12.42
2023-03-15T08:05:14.109Z,12.45
2023-03-15T08:07:42.301Z,12.73
2023-03-15T08:10:11.242Z,13.23
2023-03-15T08:12:40.945Z,13.52
2023-03-15T08:15:13.387Z,13.83
2023-03-15T08:17:42.842Z,14.44
2023-03-15T08:20:12.447Z,15.13
2023-03-15T08:22:47.632Z,15.46
2023-03-15T08:25:24.200Z,15.83
2023-03-15T08:27:53.997Z,15.87
2023-03-15T08:30:22.817Z,15.89
2023-03-15T08:32:52.722Z,15.81
2023-03-15T08:35:23.018Z,15.64
2023-03-15T08:37:52.538Z,15.40
2023-03-15T08:40:24.944Z,14.97
2023-03-15T08:42:55.430Z,14.61
2023-03-15T08:45:26.094Z,14.39
2023-03-15T08:47:58.717Z,14.29
2023-03-15T08:50:28.804Z,14.38
2023-03-15T08:52:57.967Z,14.17
2023-03-15T08:55:28.802Z,13.89
2023-03-15T08:57:57.181Z,13.79
2023-03-15T09:00:25.663Z,13.89
2023-03-15T09:02:57.511Z,13.94
2023-03-15T09:05:30.411Z,13.97
2023-03-15T09:08:01.553Z,14.00
2023-03-15T09:10:30.033Z,13.90
2023-03-15T09:12:58.212Z,13.64
2023-03-15T09:15:26.869Z,13.33
2023-03-15T09:17:55.221Z,13.19
2023-03-15T09:20:28.337Z,13.07
2023-03-15T09:23:00.482Z,13.05
2023-03-15T09:25:28.911Z,13.00
2023-03-15T09:27:57.070Z,12.77
2023-03-15T09:30:25.685Z,12.61
2023-03-15T09:32:53.853Z,12.44
2023-03-15T09:35:22.374Z,12.18
2023-03-15T09:37:51.148Z,12.03
2023-03-15T09:40:27.579Z,11.85
2023-03-15T09:43:04.010Z,11.79
2023-03-15T09:46:04.117Z,11.66
2023-03-15T10:01:13.535Z,11.07
2023-03-15T10:12:12.040Z,10.63
2023-03-15T10:15:26.682Z,10.46
2023-03-15T10:30:51.613Z,10.48
2023-03-15T10:37:48.686Z,10.47
2023-03-15T10:41:00.699Z,10.52
2023-03-15T10:47:57.658Z,10.65
2023-03-15T10:51:06.011Z,10.76
2023-03-15T10:57:56.318Z,11.31
2023-03-15T11:01:02.830Z,11.53
2023-03-15T11:08:00.434Z,11.70
2023-03-15T11:10:58.345Z,11.79
2023-03-15T11:17:49.522Z,11.88
2023-03-15T11:32:45.543Z,13.67
2023-03-15T11:48:30.141Z,14.26
2023-03-15T11:59:40.569Z,14.66
2023-03-15T12:18:33.238Z,15.33
2023-03-15T12:21:20.899Z,15.32
2023-03-15T12:32:25.902Z,15.65
2023-03-15T12:42:54.468Z,15.69
2023-03-15T13:01:57.045Z,15.32
2023-03-15T13:08:50.080Z,15.23
2023-03-15T13:12:47.351Z,15.20
2023-03-15T13:32:28.561Z,14.40
2023-03-15T13:43:15.791Z,13.97
2023-03-15T13:58:58.634Z,13.22
2023-03-15T14:05:50.075Z,13.00
2023-03-15T14:17:03.544Z,12.53
2023-03-15T14:24:39.410Z,12.27
2023-03-15T14:31:30.434Z,12.04
2023-03-15T14:43:36.482Z,11.79
2023-03-15T14:50:26.748Z,11.56
2023-03-15T14:53:22.340Z,11.50
2023-03-15T15:16:04.556Z,10.87
2023-03-15T15:22:58.403Z,10.86
2023-03-15T15:26:32.491Z,10.81
2023-03-15T15:37:37.500Z,10.69
2023-03-15T15:40:27.287Z,10.67
2023-03-15T15:47:16.157Z,10.60
2023-03-15T15:50:24.296Z,10.60
2023-03-15T16:05:44.269Z,10.44
2023-03-15T16:12:35.334Z,10.38
2023-03-15T16:23:40.230Z,10.37
2023-03-15T16:26:37.232Z,10.38
2023-03-15T16:37:47.321Z,10.34
2023-03-15T16:41:20.476Z,10.35
2023-03-15T16:55:18.884Z,10.21
2023-03-15T16:57:52.591Z,10.16
2023-03-15T17:00:22.063Z,10.12
2023-03-15T17:03:04.964Z,10.09
2023-03-15T17:05:50.142Z,10.06
2023-03-15T17:08:20.747Z,10.03
2023-03-15T17:10:49.738Z,10.00
2023-03-15T17:13:27.198Z,9.96
2023-03-15T17:15:58.859Z,9.92
2023-03-15T17:18:30.994Z,9.87
2023-03-15T17:21:05.978Z,9.85
2023-03-15T17:23:40.601Z,9.82
2023-03-15T17:26:15.645Z,9.78
2023-03-15T17:28:46.959Z,9.76
2023-03-15T17:31:25.279Z,9.74
2023-03-15T17:33:55.388Z,9.71
2023-03-15T17:36:27.706Z,9.70
2023-03-15T17:38:57.424Z,9.69
2023-03-15T17:41:34.773Z,9.67
2023-03-15T17:44:04.778Z,9.64
2023-03-15T17:46:33.454Z,9.63
2023-03-15T17:49:14.121Z,9.62
2023-03-15T17:51:47.475Z,9.60
2023-03-15T17:54:22.802Z,9.55
2023-03-15T17:56:51.681Z,9.51
2023-03-15T17:59:20.037Z,9.49
2023-03-15T18:01:51.508Z,9.49
2023-03-15T18:04:23.724Z,9.49
2023-03-15T18:06:56.021Z,9.50
2023-03-15T18:09:26.565Z,9.51
2023-03-15T18:11:56.006Z,9.52
2023-03-15T18:14:25.484Z,9.51
2023-03-15T18:16:55.095Z,9.51
2023-03-15T18:19:23.778Z,9.51
2023-03-15T18:21:52.073Z,9.49
2023-03-15T18:24:20.522Z,9.49
2023-03-15T18:26:53.087Z,9.48
2023-03-15T18:29:24.596Z,9.45
2023-03-15T18:31:53.383Z,9.40
2023-03-15T18:34:33.272Z,9.35
2023-03-15T18:37:01.761Z,9.33
2023-03-15T18:39:32.212Z,9.30
2023-03-15T18:42:01.102Z,9.26
2023-03-15T18:44:33.083Z,9.23
2023-03-15T18:47:02.468Z,9.23
2023-03-15T18:49:32.965Z,9.21
2023-03-15T18:52:01.697Z,9.21
2023-03-15T18:54:33.157Z,9.19
2023-03-15T18:57:02.871Z,9.16
2023-03-15T18:59:32.217Z,9.13
2023-03-15T19:02:02.481Z,9.11
2023-03-15T19:04:31.151Z,9.11
2023-03-15T19:06:59.450Z,9.10
2023-03-15T19:09:27.706Z,9.10
2023-03-15T19:19:41.922Z,9.16
2023-03-15T19:22:10.911Z,9.15
2023-03-15T19:24:40.425Z,9.15
2023-03-15T19:27:09.952Z,9.19
2023-03-15T19:29:38.685Z,9.21
2023-03-15T19:32:07.032Z,9.22
2023-03-15T19:34:38.746Z,9.22
2023-03-15T19:37:07.039Z,9.21
2023-03-15T19:39:35.402Z,9.21
2023-03-15T19:42:04.446Z,9.20
2023-03-15T19:44:32.635Z,9.21
2023-03-15T19:47:00.869Z,9.20
2023-03-15T19:49:29.252Z,9.19
2023-03-15T19:52:01.542Z,9.19
2023-03-15T19:54:34.137Z,9.21
2023-03-15T19:57:06.676Z,9.21
2023-03-15T19:59:40.031Z,9.22
2023-03-15T20:02:12.375Z,9.24
2023-03-15T20:04:43.449Z,9.27
2023-03-15T20:07:12.592Z,9.29
2023-03-15T20:09:46.097Z,9.31
2023-03-15T20:12:15.593Z,9.30
2023-03-15T20:14:45.204Z,9.29
2023-03-15T20:17:13.447Z,9.29
2023-03-15T20:19:42.003Z,9.30
2023-03-15T20:22:10.190Z,9.33
2023-03-15T20:24:40.561Z,9.35
2023-03-15T20:27:08.966Z,9.37
2023-03-15T20:29:37.190Z,9.38
2023-03-15T20:32:05.597Z,9.37
2023-03-15T20:34:33.684Z,9.35
2023-03-15T20:37:03.612Z,9.32
2023-03-15T20:39:33.153Z,9.29
2023-03-15T20:42:05.929Z,9.28
2023-03-15T20:44:34.710Z,9.26
2023-03-15T20:47:04.205Z,9.27
2023-03-15T20:49:32.826Z,9.24
2023-03-15T20:52:04.679Z,9.22
2023-03-15T20:54:33.185Z,9.19
2023-03-15T20:57:01.731Z,9.14
2023-03-15T20:59:30.064Z,9.10
2023-03-15T21:01:58.177Z,9.07
2023-03-15T21:04:27.958Z,9.04
2023-03-15T21:06:56.367Z,9.01
2023-03-15T21:09:24.587Z,8.99
2023-03-15T21:11:56.720Z,8.96
2023-03-15T21:14:26.553Z,8.91
2023-03-15T21:16:54.810Z,8.88
2023-03-15T21:19:25.628Z,8.84
2023-03-15T21:21:59.044Z,8.82
2023-03-15T21:24:31.303Z,8.82
2023-03-15T21:27:00.030Z,8.82
2023-03-15T21:29:28.330Z,8.81
2023-03-15T21:31:59.028Z,8.79
2023-03-15T21:34:31.735Z,8.75
2023-03-15T21:37:00.093Z,8.72
2023-03-15T21:39:28.425Z,8.72
2023-03-15T21:41:56.779Z,8.68
2023-03-15T21:44:25.462Z,8.64
2023-03-15T21:46:53.893Z,8.61
2023-03-15T21:49:22.205Z,8.57
2023-03-15T21:51:52.095Z,8.53
2023-03-15T21:54:20.482Z,8.50
2023-03-15T21:56:48.834Z,8.48
2023-03-15T21:59:18.705Z,8.47
2023-03-15T22:01:48.499Z,8.45
2023-03-15T22:04:18.026Z,8.43
2023-03-15T22:06:46.560Z,8.41
2023-03-15T22:09:14.872Z,8.38
2023-03-15T22:11:49.026Z,8.35
2023-03-15T22:14:17.604Z,8.31
2023-03-15T22:16:45.686Z,8.30
2023-03-15T22:19:14.632Z,8.26
2023-03-15T22:21:45.636Z,8.22
2023-03-15T22:24:13.903Z,8.19
2023-03-15T22:26:43.216Z,8.16
2023-03-15T22:29:12.106Z,8.10
2023-03-15T22:31:40.356Z,8.06
2023-03-15T22:34:08.505Z,8.03
2023-03-15T22:36:38.043Z,8.00
2023-03-15T22:39:07.349Z,7.99
2023-03-15T22:41:35.736Z,7.97
2023-03-15T22:44:04.563Z,7.96
2023-03-15T22:46:35.000Z,7.94
2023-03-15T22:49:03.987Z,7.93
2023-03-15T22:51:32.230Z,7.89
2023-03-15T22:54:01.298Z,7.84
2023-03-15T22:56:29.377Z,7.80
2023-03-15T22:59:04.317Z,7.76
2023-03-15T23:01:32.586Z,7.73
2023-03-15T23:04:00.800Z,7.70
2023-03-15T23:06:32.062Z,7.68
2023-03-15T23:09:06.268Z,7.66
2023-03-15T23:11:35.011Z,7.65
2023-03-15T23:14:03.138Z,7.62
2023-03-15T23:16:32.110Z,7.59
2023-03-15T23:19:03.336Z,7.55
2023-03-15T23:21:31.633Z,7.52
2023-03-15T23:23:59.853Z,7.50
2023-03-15T23:26:28.162Z,7.49
2023-03-15T23:28:58.597Z,7.47
2023-03-15T23:31:26.856Z,7.44
2023-03-15T23:33:55.147Z,7.41
2023-03-15T23:36:23.435Z,7.37
2023-03-15T23:38:53.386Z,7.35
2023-03-15T23:41:22.480Z,7.34
2023-03-15T23:43:50.852Z,7.34
2023-03-15T23:46:19.036Z,7.35
2023-03-15T23:53:05.280Z,7.29
